Kang Cheng — VRZX3 — position and weather

sailwx.info

Track history (hours):
 
Tides and Currents Weather Stations Pressure Air Temp Water Temp Dewpoint Dewpoint Depression Visibility Wind Speed Wind Dir Waves Ship Positions

Kang Cheng

Last reported at 2018-May-16 16:31 UTC. Time now 2018-May-21 06:54 UTC.
Position N 29°49' E 123°43'.

Length 189 m; draft 12.7 m.

Type: Cargo ship. MMSI: 477975000.

Date/timePositionNaut miles runAvg speedWind from/ knotsBaromVisibWave heightAir tempDewpointWater temp
2018-May-16 16:31N 29°49' E 123°43'011.5
2018-May-16 16:30N 29°49' E 123°43'911.2
2018-May-16 15:41N 29°58' E 123°42'211.3
2018-May-16 15:29N 30°01' E 123°41'710.9
2018-May-16 14:50N 30°08' E 123°41'410.8
2018-May-16 14:27N 30°12' E 123°40'510.6
2018-May-16 13:58N 30°17' E 123°40'510.6
2018-May-16 13:27N 30°22' E 123°38'4612.2
2018-May-16 09:40N 31°08' E 123°36'214.5
2018-May-16 09:30N 31°11' E 123°36'  
2018-May-08 02:08N 23°34' E 119°56'913.0
2018-May-08 01:27N 23°26' E 119°55'3412.0
2018-May-07 22:38N 22°52' E 119°53'211.8
2018-May-07 22:30N 22°50' E 119°53'611.6
2018-May-07 21:58N 22°44' E 119°53'612.0
2018-May-07 21:30N 22°39' E 119°53'612.7
2018-May-07 21:00N 22°32' E 119°52'712.6
2018-May-07 20:26N 22°25' E 119°51'612.5
2018-May-07 19:58N 22°19' E 119°52'  
Track history (hours):
 
Tides and Currents Weather Stations Pressure Air Temp Water Temp Dewpoint Dewpoint Depression Visibility Wind Speed Wind Dir Waves Ship Positions

Kang Cheng

Last reported at 2018-May-16 16:31 UTC. Time now 2018-May-21 06:54 UTC.
Position N 29°49' E 123°43'.

Length 189 m; draft 12.7 m.

Type: Cargo ship. MMSI: 477975000.

Date/timePositionNaut miles runAvg speedWind from/ knotsBaromVisibWave heightAir tempDewpointWater temp
2018-May-16 16:31N 29°49' E 123°43'011.5
2018-May-16 16:30N 29°49' E 123°43'911.2
2018-May-16 15:41N 29°58' E 123°42'211.3
2018-May-16 15:29N 30°01' E 123°41'710.9
2018-May-16 14:50N 30°08' E 123°41'410.8
2018-May-16 14:27N 30°12' E 123°40'510.6
2018-May-16 13:58N 30°17' E 123°40'510.6
2018-May-16 13:27N 30°22' E 123°38'4612.2
2018-May-16 09:40N 31°08' E 123°36'214.5
2018-May-16 09:30N 31°11' E 123°36'  
2018-May-08 02:08N 23°34' E 119°56'913.0
2018-May-08 01:27N 23°26' E 119°55'3412.0
2018-May-07 22:38N 22°52' E 119°53'211.8
2018-May-07 22:30N 22°50' E 119°53'611.6
2018-May-07 21:58N 22°44' E 119°53'612.0
2018-May-07 21:30N 22°39' E 119°53'612.7
2018-May-07 21:00N 22°32' E 119°52'712.6
2018-May-07 20:26N 22°25' E 119°51'612.5
2018-May-07 19:58N 22°19' E 119°52'  

Dump ship's entire track history